createdAt,value
2023-05-22T00:01:42.799Z,7.30
2023-05-22T00:04:13.293Z,7.78
2023-05-22T00:06:43.000Z,7.38
2023-05-22T00:09:09.479Z,7.80
2023-05-22T00:11:36.506Z,7.55
2023-05-22T00:14:02.921Z,7.07
2023-05-22T00:16:29.371Z,7.40
2023-05-22T00:18:57.277Z,8.10
2023-05-22T00:21:24.457Z,7.90
2023-05-22T00:23:50.827Z,7.55
2023-05-22T00:26:17.282Z,7.45
2023-05-22T00:28:43.666Z,8.43
2023-05-22T00:31:10.059Z,8.40
2023-05-22T00:33:36.632Z,7.50
2023-05-22T00:36:03.186Z,8.25
2023-05-22T00:38:32.172Z,7.88
2023-05-22T00:40:59.292Z,8.25
2023-05-22T00:43:26.003Z,7.60
2023-05-22T00:45:52.648Z,7.97
2023-05-22T00:48:19.056Z,7.70
2023-05-22T00:50:45.488Z,8.45
2023-05-22T00:53:12.401Z,8.02
2023-05-22T00:55:38.836Z,8.20
2023-05-22T00:58:07.686Z,8.50
2023-05-22T01:00:37.510Z,8.05
2023-05-22T01:03:05.637Z,8.73
2023-05-22T01:05:32.280Z,8.57
2023-05-22T01:07:58.855Z,8.48
2023-05-22T01:10:27.895Z,8.40
2023-05-22T01:12:54.480Z,8.90
2023-05-22T01:15:20.941Z,7.88
2023-05-22T01:17:53.406Z,8.70
2023-05-22T01:20:19.943Z,7.88
2023-05-22T01:22:50.046Z,8.85
2023-05-22T01:25:35.059Z,8.30
2023-05-22T01:28:20.602Z,8.27
2023-05-22T01:30:59.287Z,8.95
2023-05-22T01:33:27.472Z,8.65
2023-05-22T01:35:57.359Z,8.40
2023-05-22T01:38:24.455Z,8.15
2023-05-22T01:40:51.121Z,9.18
2023-05-22T01:43:17.661Z,8.57
2023-05-22T01:45:46.978Z,8.50
2023-05-22T01:48:13.465Z,8.27
2023-05-22T01:50:40.818Z,8.95
2023-05-22T01:53:13.525Z,9.27
2023-05-22T01:55:47.465Z,9.60
2023-05-22T01:58:23.458Z,8.25
2023-05-22T02:00:53.858Z,9.23
2023-05-22T02:03:29.429Z,8.77
2023-05-22T02:05:59.954Z,8.90
2023-05-22T02:08:26.567Z,9.38
2023-05-22T02:10:55.124Z,8.25
2023-05-22T02:13:21.732Z,9.23
2023-05-22T02:15:49.135Z,9.07
2023-05-22T02:18:15.611Z,8.68
2023-05-22T02:20:42.249Z,8.40
2023-05-22T02:23:08.761Z,8.93
2023-05-22T02:25:35.353Z,9.90
2023-05-22T02:28:01.748Z,9.07
2023-05-22T02:30:28.136Z,8.75
2023-05-22T02:32:54.619Z,9.38
2023-05-22T02:35:21.216Z,9.05
2023-05-22T02:37:47.601Z,10.35
2023-05-22T02:40:15.572Z,10.13
2023-05-22T02:42:42.004Z,9.88
2023-05-22T02:45:08.783Z,9.43
2023-05-22T02:47:35.280Z,9.75
2023-05-22T02:50:01.833Z,9.55
2023-05-22T02:52:28.372Z,9.75
2023-05-22T02:54:54.844Z,9.85
2023-05-22T02:57:21.267Z,10.55
2023-05-22T02:59:47.881Z,9.85
2023-05-22T03:02:15.333Z,9.95
2023-05-22T03:04:41.949Z,9.57
2023-05-22T03:07:08.376Z,10.07
2023-05-22T03:09:34.862Z,9.60
2023-05-22T03:12:01.444Z,10.02
2023-05-22T03:14:29.181Z,9.55
2023-05-22T03:16:56.084Z,10.05
2023-05-22T03:19:22.583Z,9.38
2023-05-22T03:21:50.154Z,9.02
2023-05-22T03:24:16.974Z,9.30
2023-05-22T03:26:43.950Z,9.45
2023-05-22T03:29:10.553Z,9.85
2023-05-22T03:31:37.064Z,9.93
2023-05-22T03:34:05.709Z,9.55
2023-05-22T03:36:34.161Z,9.40
2023-05-22T03:39:02.859Z,9.40
2023-05-22T03:41:29.315Z,10.20
2023-05-22T03:43:55.722Z,10.00
2023-05-22T03:46:22.685Z,9.82
2023-05-22T03:48:49.241Z,10.10
2023-05-22T03:51:18.130Z,9.43
2023-05-22T03:53:46.420Z,10.10
2023-05-22T03:56:12.839Z,10.00
2023-05-22T03:58:39.292Z,9.68
2023-05-22T04:01:05.698Z,9.77
2023-05-22T04:03:32.155Z,9.80
2023-05-22T04:05:58.604Z,10.55
2023-05-22T04:08:25.126Z,9.57
2023-05-22T04:10:54.407Z,10.38
2023-05-22T04:13:23.382Z,10.63
2023-05-22T04:15:50.302Z,10.45
2023-05-22T04:18:16.822Z,10.40
2023-05-22T04:20:43.215Z,10.38
2023-05-22T04:23:09.757Z,10.48
2023-05-22T04:25:36.562Z,11.52
2023-05-22T04:28:04.014Z,11.75
2023-05-22T04:30:34.065Z,10.30
2023-05-22T04:33:00.843Z,9.85
2023-05-22T04:35:29.649Z,9.98
2023-05-22T04:38:07.672Z,9.25
2023-05-22T04:40:34.383Z,10.18
2023-05-22T04:43:03.403Z,9.23
2023-05-22T04:45:32.977Z,9.52
2023-05-22T04:48:02.600Z,9.27
2023-05-22T04:50:32.626Z,10.23
2023-05-22T04:53:04.224Z,9.75
2023-05-22T04:55:33.804Z,9.75
2023-05-22T04:58:00.328Z,10.13
2023-05-22T05:00:28.704Z,9.63
2023-05-22T05:02:55.176Z,9.82
2023-05-22T05:05:21.830Z,8.75
2023-05-22T05:07:50.061Z,10.10
2023-05-22T05:10:16.876Z,9.65
2023-05-22T05:12:43.377Z,9.50
2023-05-22T05:15:09.947Z,10.13
2023-05-22T05:17:38.837Z,9.40
2023-05-22T05:20:07.270Z,9.35
2023-05-22T05:22:37.417Z,9.27
2023-05-22T05:25:05.428Z,10.27
2023-05-22T05:27:31.849Z,9.32
2023-05-22T05:29:58.271Z,9.43
2023-05-22T05:32:24.836Z,9.30
2023-05-22T05:34:51.547Z,8.75
2023-05-22T05:37:17.927Z,8.75
2023-05-22T05:39:44.365Z,9.30
2023-05-22T05:42:10.875Z,8.82
2023-05-22T05:44:37.321Z,8.82
2023-05-22T05:47:03.761Z,9.00
2023-05-22T05:49:30.161Z,8.77
2023-05-22T05:51:56.635Z,8.77
2023-05-22T05:54:23.181Z,8.93
2023-05-22T05:56:49.587Z,8.60
2023-05-22T05:59:16.057Z,8.52
2023-05-22T06:01:44.522Z,8.30
2023-05-22T06:04:11.463Z,8.20
2023-05-22T06:06:39.354Z,8.57
2023-05-22T06:09:06.592Z,8.60
2023-05-22T06:11:37.185Z,8.18
2023-05-22T06:14:04.187Z,8.50
2023-05-22T06:16:33.457Z,8.82
2023-05-22T06:19:02.409Z,7.85
2023-05-22T06:21:28.874Z,7.22
2023-05-22T06:23:55.309Z,7.13
2023-05-22T06:26:23.440Z,6.50
2023-05-22T06:28:51.689Z,6.90
2023-05-22T06:31:18.516Z,6.35
2023-05-22T06:33:45.038Z,6.45
2023-05-22T06:36:12.851Z,6.25
2023-05-22T06:38:39.502Z,6.75
2023-05-22T06:41:08.838Z,6.30
2023-05-22T06:43:35.718Z,6.25
2023-05-22T06:46:02.220Z,5.50
2023-05-22T06:48:28.703Z,6.03
2023-05-22T06:50:55.090Z,6.35
2023-05-22T06:53:21.788Z,5.60
2023-05-22T06:55:50.964Z,5.40
2023-05-22T06:58:17.361Z,5.38
2023-05-22T07:00:43.816Z,6.43
2023-05-22T07:03:10.280Z,5.50
2023-05-22T07:05:36.840Z,5.43
2023-05-22T07:08:06.270Z,5.13
2023-05-22T07:10:32.644Z,5.05
2023-05-22T07:12:59.421Z,4.57
2023-05-22T07:15:25.876Z,5.13
2023-05-22T07:17:52.541Z,4.63
2023-05-22T07:20:21.597Z,5.15
2023-05-22T07:22:48.003Z,4.57
2023-05-22T07:25:14.705Z,5.45
2023-05-22T07:27:41.133Z,4.57
2023-05-22T07:30:08.112Z,4.35
2023-05-22T07:32:34.605Z,4.53
2023-05-22T07:35:01.077Z,4.63
2023-05-22T07:37:27.714Z,4.43
2023-05-22T07:39:54.155Z,4.28
2023-05-22T07:42:21.696Z,4.20
2023-05-22T07:44:48.147Z,4.15
2023-05-22T07:47:14.576Z,4.80
2023-05-22T07:49:41.156Z,4.82
2023-05-22T07:52:07.774Z,5.18
2023-05-22T07:54:34.182Z,5.03
2023-05-22T07:57:03.547Z,4.80
2023-05-22T07:59:29.980Z,3.90
2023-05-22T08:01:58.203Z,4.25
2023-05-22T08:04:25.092Z,4.15
2023-05-22T08:06:51.825Z,4.22
2023-05-22T08:09:18.745Z,4.03
2023-05-22T08:11:45.258Z,3.72
2023-05-22T08:14:11.756Z,3.95
2023-05-22T08:16:38.236Z,3.50
2023-05-22T08:19:06.273Z,3.58
2023-05-22T08:21:34.639Z,3.70
2023-05-22T08:24:01.719Z,3.80
2023-05-22T08:26:30.048Z,3.60
2023-05-22T08:28:57.858Z,3.90
2023-05-22T08:31:24.279Z,3.80
2023-05-22T08:33:50.761Z,3.88
2023-05-22T08:36:17.203Z,3.90
2023-05-22T08:38:43.612Z,3.63
2023-05-22T08:41:10.368Z,4.07
2023-05-22T08:43:37.061Z,4.05
2023-05-22T08:46:04.248Z,3.78
2023-05-22T08:48:34.112Z,4.00
2023-05-22T08:51:04.576Z,4.65
2023-05-22T08:53:33.522Z,3.95
2023-05-22T08:56:00.285Z,4.00
2023-05-22T08:58:27.012Z,4.30
2023-05-22T09:00:54.198Z,3.80
2023-05-22T09:03:23.472Z,3.95
2023-05-22T09:05:50.137Z,4.00
2023-05-22T09:08:21.018Z,3.85
2023-05-22T09:10:47.926Z,4.10
2023-05-22T09:13:23.840Z,4.05
2023-05-22T09:15:50.199Z,4.13
2023-05-22T09:18:16.616Z,3.65
2023-05-22T09:20:43.370Z,3.75
2023-05-22T09:23:17.936Z,3.72
2023-05-22T09:25:44.851Z,3.80
2023-05-22T09:28:12.144Z,4.15
2023-05-22T09:30:39.152Z,3.88
2023-05-22T09:33:08.941Z,4.00
2023-05-22T09:35:36.376Z,3.78
2023-05-22T09:38:03.731Z,3.78
2023-05-22T09:40:32.241Z,3.85
2023-05-22T09:42:58.631Z,4.00
2023-05-22T09:45:25.184Z,3.90
2023-05-22T09:47:52.093Z,3.90
2023-05-22T09:50:18.637Z,4.20
2023-05-22T09:52:46.189Z,4.28
2023-05-22T09:55:14.154Z,5.50
2023-05-22T09:57:48.378Z,4.88
2023-05-22T10:00:19.257Z,4.50
2023-05-22T10:02:47.239Z,4.85
2023-05-22T10:05:22.989Z,7.05
2023-05-22T10:07:50.573Z,5.15
2023-05-22T10:10:18.427Z,4.72
2023-05-22T10:12:47.981Z,4.15
2023-05-22T10:15:15.365Z,5.45
2023-05-22T10:17:44.561Z,4.80
2023-05-22T10:20:12.227Z,4.97
2023-05-22T10:22:38.764Z,4.32
2023-05-22T10:25:05.658Z,4.32
2023-05-22T10:27:32.295Z,4.47
2023-05-22T10:30:16.185Z,4.30
2023-05-22T10:32:50.214Z,4.53
2023-05-22T10:35:16.819Z,4.22
2023-05-22T10:37:43.382Z,4.35
2023-05-22T10:40:12.069Z,4.32
2023-05-22T10:42:38.851Z,4.00
2023-05-22T10:45:08.415Z,4.05
2023-05-22T10:47:34.983Z,4.60
2023-05-22T10:50:06.887Z,4.20
2023-05-22T10:52:33.527Z,4.38
2023-05-22T10:55:00.444Z,4.35
2023-05-22T10:57:31.892Z,4.60
2023-05-22T11:00:07.406Z,4.05
2023-05-22T11:02:38.293Z,4.13
2023-05-22T11:05:17.240Z,4.25
2023-05-22T11:07:43.743Z,4.47
2023-05-22T11:10:10.529Z,4.10
2023-05-22T11:12:41.405Z,4.32
2023-05-22T11:15:09.073Z,4.57
2023-05-22T11:17:50.239Z,4.40
2023-05-22T11:20:24.353Z,4.15
2023-05-22T11:22:55.635Z,4.40
2023-05-22T11:25:22.705Z,4.50
2023-05-22T11:27:49.282Z,3.95
2023-05-22T11:30:16.329Z,3.97
2023-05-22T11:32:46.206Z,4.35
2023-05-22T11:35:17.301Z,3.90
2023-05-22T11:37:44.222Z,4.45
2023-05-22T11:40:11.701Z,4.57
2023-05-22T11:42:40.565Z,3.95
2023-05-22T11:45:07.182Z,4.50
2023-05-22T11:47:33.770Z,3.83
2023-05-22T11:50:01.611Z,4.28
2023-05-22T11:52:35.268Z,4.00
2023-05-22T11:55:02.131Z,4.38
2023-05-22T11:57:28.958Z,4.10
2023-05-22T11:59:56.081Z,4.13
2023-05-22T12:02:22.641Z,4.20
2023-05-22T12:04:53.790Z,4.40
2023-05-22T12:07:20.336Z,4.05
2023-05-22T12:09:47.005Z,4.15
2023-05-22T12:12:15.468Z,4.03
2023-05-22T12:14:44.388Z,4.00
2023-05-22T12:17:12.850Z,4.88
2023-05-22T12:19:43.401Z,4.73
2023-05-22T12:22:10.463Z,4.53
2023-05-22T12:24:40.990Z,4.80
2023-05-22T12:27:10.945Z,4.90
2023-05-22T12:29:38.248Z,4.60
2023-05-22T12:32:09.308Z,5.00
2023-05-22T12:34:36.450Z,4.70
2023-05-22T12:37:03.000Z,5.05
2023-05-22T12:39:30.332Z,4.68
2023-05-22T12:41:56.823Z,4.53
2023-05-22T12:44:23.313Z,5.07
2023-05-22T12:46:49.835Z,4.85
2023-05-22T12:49:16.343Z,5.28
2023-05-22T12:51:42.903Z,4.75
2023-05-22T12:54:09.421Z,5.10
2023-05-22T12:56:35.951Z,5.50
2023-05-22T12:59:02.447Z,5.07
2023-05-22T13:01:29.189Z,5.22
2023-05-22T13:03:58.156Z,5.68
2023-05-22T13:06:24.741Z,5.07
2023-05-22T13:08:51.236Z,5.05
2023-05-22T13:11:20.068Z,5.28
2023-05-22T13:13:46.631Z,5.15
2023-05-22T13:16:13.175Z,5.00
2023-05-22T13:18:39.717Z,5.00
2023-05-22T13:21:06.272Z,4.90
2023-05-22T13:23:32.855Z,4.85
2023-05-22T13:26:01.913Z,5.18
2023-05-22T13:28:31.030Z,5.00
2023-05-22T13:30:57.582Z,5.00
2023-05-22T13:33:25.736Z,4.75
2023-05-22T13:35:52.287Z,5.47
2023-05-22T13:38:18.785Z,5.03
2023-05-22T13:40:46.953Z,5.20
2023-05-22T13:43:15.062Z,5.20
2023-05-22T13:45:41.860Z,5.10
2023-05-22T13:48:08.652Z,5.40
2023-05-22T13:50:35.148Z,5.72
2023-05-22T13:53:01.834Z,5.47
2023-05-22T13:55:28.326Z,5.85
2023-05-22T13:57:54.885Z,5.18
2023-05-22T14:00:21.423Z,5.38
2023-05-22T14:02:48.130Z,5.55
2023-05-22T14:05:15.143Z,5.50
2023-05-22T14:07:41.633Z,5.13
2023-05-22T14:10:08.443Z,5.35
2023-05-22T14:12:34.985Z,5.53
2023-05-22T14:15:02.481Z,5.10
2023-05-22T14:17:29.024Z,5.53
2023-05-22T14:19:55.539Z,5.75
2023-05-22T14:22:22.074Z,5.80
2023-05-22T14:24:48.622Z,5.50
2023-05-22T14:27:15.174Z,5.32
2023-05-22T14:29:41.700Z,5.55
2023-05-22T14:32:08.201Z,5.50
2023-05-22T14:34:34.816Z,4.88
2023-05-22T14:37:01.336Z,4.85
2023-05-22T14:39:28.036Z,4.97
2023-05-22T14:41:54.680Z,5.07
2023-05-22T14:44:22.679Z,4.95
2023-05-22T14:46:50.986Z,5.07
2023-05-22T14:49:17.707Z,4.50
2023-05-22T14:51:48.297Z,4.68
2023-05-22T14:54:19.125Z,5.47
2023-05-22T14:56:46.108Z,5.45
2023-05-22T14:59:12.683Z,5.18
2023-05-22T15:01:39.482Z,5.53
2023-05-22T15:04:06.188Z,5.45
2023-05-22T15:06:32.776Z,5.68
2023-05-22T15:08:59.321Z,5.60
2023-05-22T15:11:26.260Z,5.50
2023-05-22T15:13:54.365Z,5.47
2023-05-22T15:16:23.634Z,6.25
2023-05-22T15:18:50.546Z,6.00
2023-05-22T15:21:17.224Z,6.22
2023-05-22T15:23:43.644Z,5.78
2023-05-22T15:26:12.601Z,5.50
2023-05-22T15:28:39.112Z,5.95
2023-05-22T15:31:05.777Z,5.25
2023-05-22T15:33:34.135Z,5.72
2023-05-22T15:36:00.619Z,5.38
2023-05-22T15:38:28.177Z,6.20
2023-05-22T15:40:56.888Z,5.82
2023-05-22T15:43:25.973Z,5.65
2023-05-22T15:45:52.758Z,5.38
2023-05-22T15:48:21.718Z,5.70
2023-05-22T15:50:50.522Z,5.55
2023-05-22T15:53:17.187Z,5.70
2023-05-22T15:55:46.952Z,6.15
2023-05-22T15:58:13.396Z,5.80
2023-05-22T16:00:41.262Z,5.80
2023-05-22T16:03:11.383Z,6.25
2023-05-22T16:05:43.169Z,5.93
2023-05-22T16:08:12.586Z,5.88
2023-05-22T16:10:41.594Z,5.60
2023-05-22T16:13:10.482Z,5.47
2023-05-22T16:15:39.438Z,6.13
2023-05-22T16:18:07.100Z,5.70
2023-05-22T16:20:34.130Z,5.78
2023-05-22T16:23:00.702Z,5.40
2023-05-22T16:25:27.313Z,5.22
2023-05-22T16:27:53.833Z,5.15
2023-05-22T16:30:21.272Z,5.10
2023-05-22T16:32:48.526Z,5.25
2023-05-22T16:35:15.770Z,5.30
2023-05-22T16:37:42.303Z,5.20
2023-05-22T16:40:11.951Z,5.80
2023-05-22T16:42:38.523Z,5.30
2023-05-22T16:45:05.842Z,5.40
2023-05-22T16:47:33.130Z,5.30
2023-05-22T16:50:02.063Z,5.30
2023-05-22T16:52:30.854Z,5.15
2023-05-22T16:54:59.919Z,5.13
2023-05-22T16:57:28.852Z,5.07
2023-05-22T16:59:57.155Z,5.13
2023-05-22T17:02:24.349Z,4.68
2023-05-22T17:04:50.891Z,5.32
2023-05-22T17:07:17.348Z,5.05
2023-05-22T17:09:43.767Z,4.97
2023-05-22T17:12:10.280Z,5.28
2023-05-22T17:14:37.396Z,5.03
2023-05-22T17:17:06.450Z,5.47
2023-05-22T17:19:33.084Z,4.70
2023-05-22T17:21:59.868Z,5.60
2023-05-22T17:24:30.000Z,4.97
2023-05-22T17:26:56.593Z,5.53
2023-05-22T17:29:23.055Z,5.60
2023-05-22T17:31:49.543Z,5.65
2023-05-22T17:34:16.042Z,5.18
2023-05-22T17:36:44.754Z,5.43
2023-05-22T17:39:11.575Z,5.25
2023-05-22T17:41:40.596Z,5.07
2023-05-22T17:44:09.520Z,5.63
2023-05-22T17:46:36.146Z,5.25
2023-05-22T17:49:02.735Z,5.30
2023-05-22T17:51:29.176Z,5.10
2023-05-22T17:53:56.433Z,5.63
2023-05-22T17:56:23.600Z,5.22
2023-05-22T17:58:50.714Z,5.82
2023-05-22T18:01:18.048Z,5.75
2023-05-22T18:03:45.251Z,6.05
2023-05-22T18:06:16.702Z,6.10
2023-05-22T18:08:43.270Z,5.88
2023-05-22T18:11:12.172Z,5.85
2023-05-22T18:13:38.634Z,5.72
2023-05-22T18:16:10.118Z,6.15
2023-05-22T18:18:41.634Z,5.60
2023-05-22T18:21:08.532Z,5.50
2023-05-22T18:23:37.462Z,5.70
2023-05-22T18:26:03.949Z,6.13
2023-05-22T18:28:30.410Z,6.30
2023-05-22T18:30:57.262Z,6.45
2023-05-22T18:33:24.957Z,6.53
2023-05-22T18:35:51.430Z,6.10
2023-05-22T18:38:17.848Z,6.43
2023-05-22T18:40:44.704Z,5.88
2023-05-22T18:43:11.804Z,5.95
2023-05-22T18:45:38.341Z,6.18
2023-05-22T18:48:04.838Z,6.53
2023-05-22T18:50:33.801Z,6.55
2023-05-22T18:53:00.251Z,6.72
2023-05-22T18:55:29.237Z,7.18
2023-05-22T18:57:55.787Z,6.88
2023-05-22T19:00:22.322Z,6.85
2023-05-22T19:02:48.827Z,6.35
2023-05-22T19:05:22.822Z,6.78
2023-05-22T19:07:49.235Z,7.45
2023-05-22T19:10:16.096Z,6.78
2023-05-22T19:12:42.517Z,6.82
2023-05-22T19:15:09.317Z,6.88
2023-05-22T19:17:35.796Z,6.80
2023-05-22T19:20:06.315Z,7.20
2023-05-22T19:22:35.402Z,7.25
2023-05-22T19:25:02.782Z,7.70
2023-05-22T19:27:29.401Z,7.03
2023-05-22T19:29:58.185Z,7.93
2023-05-22T19:32:24.608Z,8.55
2023-05-22T19:34:51.102Z,8.05
2023-05-22T19:37:17.526Z,9.80
2023-05-22T19:39:44.144Z,9.13
2023-05-22T19:42:11.264Z,8.55
2023-05-22T19:44:40.100Z,8.35
2023-05-22T19:47:06.611Z,7.35
2023-05-22T19:49:36.817Z,7.78
2023-05-22T19:52:04.305Z,8.20
2023-05-22T19:54:30.743Z,7.95
2023-05-22T19:56:59.310Z,8.27
2023-05-22T19:59:25.734Z,8.05
2023-05-22T20:01:55.061Z,8.27
2023-05-22T20:04:21.567Z,8.57
2023-05-22T20:06:48.487Z,8.68
2023-05-22T20:09:15.376Z,9.25
2023-05-22T20:11:41.854Z,8.25
2023-05-22T20:14:08.396Z,8.45
2023-05-22T20:16:35.048Z,8.50
2023-05-22T20:19:02.517Z,8.00
2023-05-22T20:21:32.064Z,7.85
2023-05-22T20:23:58.529Z,7.70
2023-05-22T20:26:25.078Z,8.52
2023-05-22T20:28:52.067Z,8.48
2023-05-22T20:31:18.578Z,7.97
2023-05-22T20:33:45.034Z,8.43
2023-05-22T20:36:16.473Z,8.05
2023-05-22T20:38:43.867Z,7.75
2023-05-22T20:41:12.807Z,8.30
2023-05-22T20:43:43.101Z,8.68
2023-05-22T20:46:10.170Z,9.15
2023-05-22T20:48:36.666Z,8.40
2023-05-22T20:51:05.888Z,9.23
2023-05-22T20:53:32.364Z,8.90
2023-05-22T20:55:59.031Z,9.00
2023-05-22T20:58:25.421Z,8.73
2023-05-22T21:00:51.892Z,7.85
2023-05-22T21:03:18.388Z,8.50
2023-05-22T21:05:44.885Z,8.80
2023-05-22T21:08:11.304Z,9.00
2023-05-22T21:10:37.784Z,8.90
2023-05-22T21:13:04.864Z,9.73
2023-05-22T21:15:33.741Z,8.73
2023-05-22T21:18:00.275Z,9.30
2023-05-22T21:20:26.932Z,9.50
2023-05-22T21:22:53.312Z,8.82
2023-05-22T21:25:19.798Z,8.35
2023-05-22T21:27:48.292Z,10.00
2023-05-22T21:30:16.045Z,8.80
2023-05-22T21:32:42.921Z,9.27
2023-05-22T21:35:09.623Z,8.27
2023-05-22T21:37:36.050Z,8.55
2023-05-22T21:40:02.622Z,8.80
2023-05-22T21:42:44.610Z,9.40
2023-05-22T21:45:12.825Z,8.85
2023-05-22T21:47:39.256Z,9.15
2023-05-22T21:50:05.974Z,9.38
2023-05-22T21:52:32.342Z,9.77
2023-05-22T21:54:58.770Z,9.43
2023-05-22T21:57:25.201Z,9.13
2023-05-22T21:59:51.658Z,9.50
2023-05-22T22:02:18.046Z,9.82
2023-05-22T22:04:44.483Z,11.02
2023-05-22T22:07:11.190Z,10.55
2023-05-22T22:09:37.570Z,10.63
2023-05-22T22:12:04.085Z,10.55
2023-05-22T22:14:30.528Z,9.77
2023-05-22T22:16:57.101Z,10.45
2023-05-22T22:19:23.647Z,9.55
2023-05-22T22:21:50.797Z,9.80
2023-05-22T22:24:17.478Z,9.80
2023-05-22T22:26:47.954Z,13.65
2023-05-22T22:29:14.778Z,12.80
2023-05-22T22:31:41.329Z,12.05
2023-05-22T22:34:07.824Z,11.45
2023-05-22T22:36:35.478Z,11.90
2023-05-22T22:39:02.112Z,10.63
2023-05-22T22:41:28.496Z,10.52
2023-05-22T22:43:54.949Z,10.98
2023-05-22T22:46:24.022Z,10.73
2023-05-22T22:48:51.245Z,11.00
2023-05-22T22:51:17.690Z,10.20
2023-05-22T22:53:44.104Z,11.27
2023-05-22T22:56:10.762Z,11.13
2023-05-22T22:58:39.725Z,11.50
2023-05-22T23:01:06.356Z,11.20
2023-05-22T23:03:33.060Z,11.00
2023-05-22T23:05:59.454Z,10.98
2023-05-22T23:08:26.114Z,11.90
2023-05-22T23:10:52.510Z,10.60
2023-05-22T23:13:19.017Z,11.38
2023-05-22T23:15:45.468Z,10.43
2023-05-22T23:18:13.897Z,11.13
2023-05-22T23:20:42.902Z,10.68
2023-05-22T23:23:09.329Z,11.63
2023-05-22T23:25:35.865Z,12.05
2023-05-22T23:28:02.325Z,12.43
2023-05-22T23:30:28.717Z,11.35
2023-05-22T23:32:55.222Z,10.77
2023-05-22T23:35:21.636Z,11.45
2023-05-22T23:37:48.144Z,11.27
2023-05-22T23:40:14.595Z,10.93
2023-05-22T23:42:41.304Z,10.80
2023-05-22T23:45:07.950Z,11.60
2023-05-22T23:47:34.453Z,11.25
2023-05-22T23:50:00.995Z,11.45
2023-05-22T23:52:27.585Z,10.75
2023-05-22T23:54:54.073Z,11.43
2023-05-22T23:57:20.781Z,10.77
2023-05-22T23:59:47.223Z,10.88
